Time;durP1;ratioP1;P1;durP2;ratioP2;P2;SDS_P1;SDS_P2;PMS_P1;PMS_P2;Temp;Humidity;BMP_temperature;BMP_pressure;BME280_temperature;BME280_humidity;BME280_pressure;Samples;Min_cycle;Max_cycle;Signal;HPM_P1;HPM_P2
2021/08/06 00:00:48;;;;;;;7.80;6.93;;;15.90;99.90;;;;;;5086618;28;20193;-85
2021/08/06 00:03:31;;;;;;;7.83;7.13;;;15.90;99.90;;;;;;5089735;28;20251;-84
2021/08/06 00:06:08;;;;;;;8.27;7.43;;;15.90;99.90;;;;;;5085710;28;20207;-84
2021/08/06 00:08:54;;;;;;;10.73;7.50;;;15.80;99.90;;;;;;5087662;28;20204;-83
2021/08/06 00:11:28;;;;;;;9.10;7.43;;;15.90;99.90;;;;;;5096401;28;20199;-84
2021/08/06 00:14:01;;;;;;;8.00;7.23;;;15.80;99.90;;;;;;5106366;28;20272;-87
2021/08/06 00:16:40;;;;;;;8.60;7.90;;;15.80;99.90;;;;;;5109694;28;20205;-85
2021/08/06 00:19:09;;;;;;;8.13;7.40;;;15.70;99.90;;;;;;5104946;28;21115;-85
2021/08/06 00:21:39;;;;;;;7.40;6.77;;;15.80;99.90;;;;;;5095393;28;20193;-84
2021/08/06 00:24:27;;;;;;;7.60;6.90;;;15.80;99.90;;;;;;5088372;28;20622;-85
2021/08/06 00:27:00;;;;;;;7.13;6.43;;;15.80;99.90;;;;;;5105395;28;20244;-84
2021/08/06 00:29:29;;;;;;;7.07;6.47;;;15.80;99.90;;;;;;5102633;28;20193;-84
2021/08/06 00:32:17;;;;;;;6.93;6.27;;;15.80;99.90;;;;;;5094964;28;20285;-85
2021/08/06 00:34:45;;;;;;;7.70;6.90;;;15.80;99.90;;;;;;5086244;28;20344;-84
2021/08/06 00:37:29;;;;;;;8.00;6.63;;;15.70;99.90;;;;;;5083124;28;20877;-83
2021/08/06 00:40:03;;;;;;;6.57;5.97;;;15.70;99.90;;;;;;5081054;28;20250;-83
2021/08/06 00:42:58;;;;;;;7.40;6.60;;;15.70;99.90;;;;;;5081082;28;20311;-82
2021/08/06 00:45:27;;;;;;;6.73;6.10;;;15.70;99.90;;;;;;5086443;28;20205;-83
2021/08/06 00:48:05;;;;;;;6.50;5.90;;;15.70;99.90;;;;;;5062943;28;20201;-84
2021/08/06 00:50:49;;;;;;;7.47;6.77;;;15.70;99.90;;;;;;5084484;28;20204;-82
2021/08/06 00:53:20;;;;;;;7.50;6.50;;;15.70;99.90;;;;;;5082664;28;20254;-84
2021/08/06 00:55:59;;;;;;;7.70;6.70;;;15.70;99.90;;;;;;5081421;28;20197;-85
2021/08/06 00:58:33;;;;;;;7.93;6.53;;;15.70;99.90;;;;;;5081762;28;20201;-83
2021/08/06 01:01:05;;;;;;;7.07;6.47;;;15.70;99.90;;;;;;5095314;28;20200;-83
2021/08/06 01:04:00;;;;;;;7.40;6.60;;;15.70;99.90;;;;;;5104135;28;20248;-84
2021/08/06 01:06:59;;;;;;;6.90;5.93;;;15.70;99.90;;;;;;5087310;28;20208;-84
2021/08/06 01:09:45;;;;;;;5.93;5.43;;;15.70;99.90;;;;;;5101627;28;20252;-83
2021/08/06 01:12:27;;;;;;;6.23;5.73;;;15.70;99.90;;;;;;5087238;28;20197;-83
2021/08/06 01:15:20;;;;;;;6.13;5.53;;;15.60;99.90;;;;;;5078581;28;20291;-83
2021/08/06 01:17:51;;;;;;;8.50;5.97;;;15.60;99.90;;;;;;5081543;28;20246;-85
2021/08/06 01:20:36;;;;;;;8.37;5.83;;;15.60;99.90;;;;;;5075901;28;20208;-85
2021/08/06 01:23:16;;;;;;;7.57;5.47;;;15.60;99.90;;;;;;5082721;28;20223;-85
2021/08/06 01:25:53;;;;;;;5.83;5.33;;;15.60;99.90;;;;;;5078524;28;20506;-83
2021/08/06 01:28:40;;;;;;;4.73;4.33;;;15.60;99.90;;;;;;5078133;28;20189;-83
2021/08/06 01:31:29;;;;;;;5.50;5.10;;;15.50;99.90;;;;;;5079083;28;20313;-85
2021/08/06 01:34:04;;;;;;;8.03;5.40;;;15.50;99.90;;;;;;5082186;28;20675;-84
2021/08/06 01:36:46;;;;;;;5.70;5.20;;;15.50;99.90;;;;;;5060432;28;20211;-83
2021/08/06 01:39:20;;;;;;;5.30;4.80;;;15.50;99.90;;;;;;5078637;28;20947;-83
2021/08/06 01:42:20;;;;;;;6.30;4.40;;;15.50;99.90;;;;;;5080137;28;20401;-85
2021/08/06 01:44:53;;;;;;;5.63;5.20;;;15.50;99.90;;;;;;5076057;28;20757;-85
2021/08/06 01:47:28;;;;;;;5.13;4.63;;;15.50;99.90;;;;;;5079691;28;20554;-84
2021/08/06 01:50:02;;;;;;;5.33;4.70;;;15.50;99.90;;;;;;5077038;28;20785;-83
2021/08/06 01:52:42;;;;;;;5.40;4.90;;;15.50;99.90;;;;;;5079795;28;20307;-83
2021/08/06 01:55:19;;;;;;;4.93;4.43;;;15.40;99.90;;;;;;5080090;28;20201;-85
2021/08/06 01:57:59;;;;;;;6.67;5.07;;;15.40;99.90;;;;;;5083612;28;20254;-84
2021/08/06 02:00:29;;;;;;;5.47;4.90;;;15.40;99.90;;;;;;5081270;28;20204;-84
2021/08/06 02:02:58;;;;;;;8.67;5.00;;;15.40;99.90;;;;;;5082680;28;20220;-85
2021/08/06 02:05:31;;;;;;;9.30;5.07;;;15.40;99.90;;;;;;5081805;28;20193;-84
2021/08/06 02:08:03;;;;;;;4.93;4.43;;;15.40;99.90;;;;;;5077096;28;20613;-84
2021/08/06 02:10:35;;;;;;;7.73;3.70;;;15.40;99.90;;;;;;5082655;28;20196;-84
2021/08/06 02:13:06;;;;;;;4.70;4.10;;;15.40;99.90;;;;;;5080264;28;20778;-84
2021/08/06 02:15:36;;;;;;;4.60;4.20;;;15.40;99.90;;;;;;5078794;28;20200;-84
2021/08/06 02:18:12;;;;;;;4.30;3.90;;;15.30;99.90;;;;;;5078873;28;20295;-83
2021/08/06 02:20:45;;;;;;;4.53;3.90;;;15.30;99.90;;;;;;5078141;28;20295;-83
2021/08/06 02:23:19;;;;;;;4.80;4.20;;;15.30;99.90;;;;;;5080518;28;20232;-82
2021/08/06 02:25:49;;;;;;;4.57;3.90;;;15.30;99.90;;;;;;5083377;28;20657;-84
2021/08/06 02:28:23;;;;;;;3.70;3.40;;;15.30;99.90;;;;;;5087671;28;20204;-85
2021/08/06 02:30:53;;;;;;;5.20;3.80;;;15.30;99.90;;;;;;5085992;28;20187;-84
2021/08/06 02:33:23;;;;;;;4.50;4.10;;;15.30;99.90;;;;;;5102789;28;20213;-83
2021/08/06 02:35:58;;;;;;;4.40;4.00;;;15.30;99.90;;;;;;5078754;28;20197;-85
2021/08/06 02:38:30;;;;;;;4.73;4.33;;;15.30;99.90;;;;;;5063705;28;20217;-86
2021/08/06 02:41:00;;;;;;;4.93;4.13;;;15.30;99.90;;;;;;5068958;28;20202;-85
2021/08/06 02:43:34;;;;;;;5.60;4.10;;;15.30;99.90;;;;;;5076270;28;20228;-82
2021/08/06 02:46:07;;;;;;;4.70;4.30;;;15.20;99.90;;;;;;5075768;28;20215;-85
2021/08/06 02:48:44;;;;;;;4.50;4.17;;;15.30;99.90;;;;;;5083568;28;20200;-82
2021/08/06 02:51:18;;;;;;;4.73;4.23;;;15.30;99.90;;;;;;5069759;28;20216;-86
2021/08/06 02:53:48;;;;;;;4.50;4.10;;;15.30;99.90;;;;;;5083779;28;20245;-83
2021/08/06 02:56:18;;;;;;;4.20;3.80;;;15.30;99.90;;;;;;5081331;28;20197;-85
2021/08/06 02:58:48;;;;;;;4.77;4.37;;;15.30;99.90;;;;;;5077611;28;20204;-84
2021/08/06 03:01:17;;;;;;;4.70;4.30;;;15.30;99.90;;;;;;5071665;28;20205;-85
2021/08/06 03:03:51;;;;;;;3.50;3.20;;;15.30;99.90;;;;;;5069775;28;20233;-84
2021/08/06 03:06:47;;;;;;;5.30;4.43;;;15.30;99.90;;;;;;5082350;28;20201;-85
2021/08/06 03:09:16;;;;;;;4.43;4.03;;;15.30;99.90;;;;;;5075604;28;20204;-83
2021/08/06 03:11:59;;;;;;;3.93;3.63;;;15.30;99.90;;;;;;5072319;28;20241;-87
2021/08/06 03:14:29;;;;;;;4.30;3.90;;;15.10;99.90;;;;;;5079113;28;20321;-86
2021/08/06 03:16:58;;;;;;;2.47;2.20;;;15.30;99.90;;;;;;5073836;28;20276;-85
2021/08/06 03:19:33;;;;;;;3.80;3.50;;;15.30;99.90;;;;;;5077532;28;20286;-84
2021/08/06 03:22:07;;;;;;;4.07;3.67;;;15.30;99.90;;;;;;5082707;28;20201;-87
2021/08/06 03:24:36;;;;;;;3.83;3.13;;;15.30;99.90;;;;;;5088186;28;20394;-85
2021/08/06 03:27:13;;;;;;;4.00;3.60;;;15.30;99.90;;;;;;5089810;28;20216;-84
2021/08/06 03:29:52;;;;;;;2.33;2.23;;;15.20;99.90;;;;;;5084460;28;20521;-85
2021/08/06 03:32:25;;;;;;;3.00;2.80;;;15.20;99.90;;;;;;5089663;28;20215;-85
2021/08/06 03:35:13;;;;;;;3.50;3.20;;;15.20;99.90;;;;;;5093580;28;20205;-86
2021/08/06 03:37:45;;;;;;;3.00;2.80;;;15.20;99.90;;;;;;5085696;28;20196;-84
2021/08/06 03:40:15;;;;;;;2.83;2.60;;;15.20;99.90;;;;;;5089359;28;20239;-84
2021/08/06 03:42:49;;;;;;;3.13;2.87;;;15.20;99.90;;;;;;5086613;28;20214;-87
2021/08/06 03:48:15;;;;;;;3.20;3.00;;;15.20;99.90;;;;;;5073513;28;20213;-84
2021/08/06 03:50:44;;;;;;;3.17;2.97;;;15.20;99.90;;;;;;5081764;28;20291;-84
2021/08/06 03:53:13;;;;;;;2.60;2.40;;;15.10;99.90;;;;;;5082835;28;20227;-86
2021/08/06 03:55:44;;;;;;;2.50;2.30;;;15.20;99.90;;;;;;5078812;28;20206;-84
2021/08/06 03:58:29;;;;;;;3.00;2.70;;;15.10;99.90;;;;;;5079973;28;20280;-84
2021/08/06 04:01:19;;;;;;;2.93;2.47;;;15.10;99.90;;;;;;5073377;28;20674;-85
2021/08/06 04:03:48;;;;;;;2.20;2.10;;;15.10;99.90;;;;;;5069829;28;20214;-83
2021/08/06 04:06:20;;;;;;;2.63;2.43;;;15.10;99.90;;;;;;5072481;28;20209;-83
2021/08/06 04:08:54;;;;;;;1.80;1.70;;;15.10;99.90;;;;;;5068804;28;20193;-85
2021/08/06 04:11:30;;;;;;;2.90;2.43;;;15.10;99.90;;;;;;5075452;28;20204;-85
2021/08/06 04:14:02;;;;;;;2.40;2.20;;;15.10;99.90;;;;;;5073421;28;20208;-86
2021/08/06 04:16:47;;;;;;;2.50;2.17;;;15.10;99.90;;;;;;5075028;28;20278;-85
2021/08/06 04:19:21;;;;;;;2.60;2.40;;;15.10;99.90;;;;;;5077316;28;20555;-86
2021/08/06 04:22:00;;;;;;;2.50;2.30;;;15.10;99.90;;;;;;5073064;28;20204;-83
2021/08/06 04:24:34;;;;;;;2.50;2.30;;;15.10;99.90;;;;;;5068642;28;20326;-85
2021/08/06 04:27:13;;;;;;;2.47;2.27;;;15.10;99.90;;;;;;5075020;28;20205;-86
2021/08/06 04:29:44;;;;;;;2.47;2.30;;;15.10;99.90;;;;;;5078290;28;20216;-84
2021/08/06 04:32:14;;;;;;;1.70;1.60;;;15.10;99.90;;;;;;5074004;28;20258;-82
2021/08/06 04:34:47;;;;;;;2.97;2.27;;;15.10;99.90;;;;;;5073926;28;20209;-84
2021/08/06 04:37:29;;;;;;;3.07;2.77;;;15.10;99.90;;;;;;5068969;28;20209;-85
2021/08/06 04:39:58;;;;;;;2.30;2.20;;;15.10;99.90;;;;;;5072546;28;20733;-85
2021/08/06 04:42:27;;;;;;;2.63;2.43;;;15.10;99.90;;;;;;5069342;28;20225;-85
2021/08/06 04:44:59;;;;;;;1.80;1.70;;;15.10;99.90;;;;;;5080044;28;20763;-83
2021/08/06 04:47:32;;;;;;;2.23;2.00;;;15.10;99.90;;;;;;5080824;28;20221;-83
2021/08/06 04:50:08;;;;;;;2.03;1.83;;;15.10;99.90;;;;;;5073871;28;20212;-84
2021/08/06 04:52:37;;;;;;;2.23;2.13;;;15.10;99.90;;;;;;5066498;28;20223;-83
2021/08/06 04:55:11;;;;;;;2.10;2.00;;;15.20;99.90;;;;;;5072956;28;20283;-84
2021/08/06 04:57:45;;;;;;;1.60;1.50;;;15.20;99.90;;;;;;5063832;28;20258;-84
2021/08/06 05:00:21;;;;;;;2.00;1.80;;;15.20;99.90;;;;;;5072433;28;20196;-84
2021/08/06 05:02:53;;;;;;;1.70;1.60;;;15.10;99.90;;;;;;5066177;28;20209;-84
2021/08/06 05:05:22;;;;;;;2.63;1.60;;;15.10;99.90;;;;;;5075461;28;20691;-82
2021/08/06 05:07:52;;;;;;;1.97;1.67;;;15.10;99.90;;;;;;5079271;28;20263;-85
2021/08/06 05:10:25;;;;;;;2.00;1.90;;;15.10;99.90;;;;;;5064705;28;20662;-85
2021/08/06 05:13:00;;;;;;;1.80;1.70;;;15.20;99.90;;;;;;5067777;28;20209;-83
2021/08/06 05:15:31;;;;;;;1.80;1.70;;;15.20;99.90;;;;;;5068979;28;20270;-83
2021/08/06 05:18:22;;;;;;;1.60;1.50;;;15.20;99.90;;;;;;5078387;28;20206;-86
2021/08/06 05:20:51;;;;;;;1.77;1.67;;;15.20;99.90;;;;;;5087887;28;20204;-84
2021/08/06 05:23:24;;;;;;;3.20;1.80;;;15.10;99.90;;;;;;5093786;28;20181;-84
2021/08/06 05:26:17;;;;;;;1.73;1.60;;;15.20;99.90;;;;;;5079570;28;20703;-84
2021/08/06 05:28:46;;;;;;;1.70;1.60;;;15.00;99.90;;;;;;5060568;28;20217;-84
2021/08/06 05:31:19;;;;;;;1.83;1.73;;;15.20;99.90;;;;;;5077956;28;20210;-84
2021/08/06 05:34:15;;;;;;;1.87;1.77;;;15.10;99.90;;;;;;5071713;28;20201;-85
2021/08/06 05:36:52;;;;;;;1.70;1.60;;;15.20;99.90;;;;;;5074444;28;20674;-86
2021/08/06 05:39:28;;;;;;;1.93;1.83;;;15.30;99.90;;;;;;5079192;28;20219;-86
2021/08/06 05:42:00;;;;;;;2.30;1.57;;;15.30;99.90;;;;;;5073920;28;20280;-84
2021/08/06 05:44:30;;;;;;;1.67;1.57;;;15.30;99.90;;;;;;5093779;28;20218;-84
2021/08/06 05:47:00;;;;;;;1.60;1.50;;;15.30;99.90;;;;;;5078886;28;20225;-83
2021/08/06 05:49:36;;;;;;;2.73;2.00;;;15.20;99.90;;;;;;5075184;28;20194;-85
2021/08/06 05:52:06;;;;;;;1.80;1.70;;;15.20;99.90;;;;;;5083684;28;20213;-84
2021/08/06 05:54:38;;;;;;;1.93;1.60;;;15.20;99.90;;;;;;5074722;28;20298;-84
2021/08/06 05:57:07;;;;;;;1.60;1.40;;;15.30;99.90;;;;;;5080029;28;20196;-83
2021/08/06 05:59:42;;;;;;;1.60;1.50;;;15.30;99.90;;;;;;5085704;28;20274;-83
2021/08/06 06:02:11;;;;;;;2.00;1.90;;;15.30;99.90;;;;;;5095226;28;20446;-83
2021/08/06 06:04:41;;;;;;;1.60;1.50;;;15.30;99.90;;;;;;5089010;28;20257;-84
2021/08/06 06:07:10;;;;;;;2.07;1.87;;;15.30;99.90;;;;;;5085553;28;20228;-84
2021/08/06 06:09:39;;;;;;;1.70;1.60;;;15.30;99.90;;;;;;5091871;28;20197;-83
2021/08/06 06:12:08;;;;;;;1.77;1.67;;;15.20;99.90;;;;;;5073077;28;20320;-86
2021/08/06 06:14:44;;;;;;;1.90;1.80;;;15.30;99.90;;;;;;5077367;28;20397;-84
2021/08/06 06:17:13;;;;;;;1.80;1.70;;;15.20;99.90;;;;;;5080452;28;20192;-86
2021/08/06 06:19:59;;;;;;;1.93;1.77;;;15.40;99.90;;;;;;5091414;28;20224;-86
2021/08/06 06:22:30;;;;;;;1.33;1.30;;;15.30;99.90;;;;;;5088214;28;20240;-85
2021/08/06 06:25:30;;;;;;;1.63;1.50;;;15.30;99.90;;;;;;5090734;28;20281;-87
2021/08/06 06:28:04;;;;;;;1.60;1.50;;;15.40;99.90;;;;;;5086164;28;20209;-84
2021/08/06 06:30:43;;;;;;;1.80;1.70;;;15.30;99.90;;;;;;5092129;28;20230;-86
2021/08/06 06:33:26;;;;;;;1.40;1.30;;;15.30;99.90;;;;;;5089456;28;20428;-84
2021/08/06 06:35:57;;;;;;;1.50;1.43;;;15.20;99.90;;;;;;5094812;28;20188;-85
2021/08/06 06:39:22;;;;;;;1.37;1.37;;;15.40;99.90;;;;;;5027927;28;20203;-86
2021/08/06 06:41:55;;;;;;;1.40;1.30;;;15.40;99.90;;;;;;5087194;28;20223;-87
2021/08/06 06:44:33;;;;;;;1.40;1.33;;;15.30;99.90;;;;;;5089617;28;20189;-85
2021/08/06 06:47:06;;;;;;;1.23;1.20;;;15.40;99.90;;;;;;5085970;28;20233;-85
2021/08/06 06:49:43;;;;;;;1.57;1.47;;;15.40;99.90;;;;;;5084596;28;20213;-87
2021/08/06 06:52:13;;;;;;;1.53;1.17;;;15.40;99.90;;;;;;5095207;28;20205;-84
2021/08/06 06:55:15;;;;;;;1.40;1.30;;;15.40;99.90;;;;;;5095028;28;20204;-85
2021/08/06 06:58:08;;;;;;;1.10;1.10;;;15.40;99.90;;;;;;5096473;28;20304;-86
2021/08/06 07:04:25;;;;;;;1.10;1.10;;;15.40;99.90;;;;;;5108936;28;20204;-87
2021/08/06 07:07:04;;;;;;;1.30;1.20;;;15.40;99.90;;;;;;5086981;28;20270;-85
2021/08/06 07:09:42;;;;;;;1.53;1.10;;;15.40;99.90;;;;;;5107226;28;20196;-87
2021/08/06 07:12:14;;;;;;;1.03;1.00;;;15.30;99.90;;;;;;5107726;28;20203;-84
2021/08/06 07:14:53;;;;;;;1.33;1.23;;;15.30;99.90;;;;;;5106885;28;20192;-86
2021/08/06 07:17:22;;;;;;;0.93;0.93;;;15.30;99.90;;;;;;5348576;22;20596;-85
2021/08/06 07:19:51;;;;;;;1.13;1.13;;;15.30;99.90;;;;;;5030265;28;20206;-87
2021/08/06 07:22:24;;;;;;;2.00;1.13;;;15.30;99.90;;;;;;5034153;28;20308;-85
2021/08/06 07:25:16;;;;;;;1.00;1.00;;;15.40;99.90;;;;;;5033773;28;20205;-86
2021/08/06 07:27:57;;;;;;;1.33;1.10;;;15.40;99.90;;;;;;5029469;28;20225;-85
2021/08/06 07:30:26;;;;;;;1.30;1.20;;;15.50;99.90;;;;;;5025828;28;20198;-87
2021/08/06 07:32:57;;;;;;;1.03;1.00;;;15.50;99.90;;;;;;5030914;28;20328;-86
2021/08/06 07:35:53;;;;;;;1.17;1.17;;;15.50;99.90;;;;;;5031259;28;20210;-84
2021/08/06 07:38:25;;;;;;;1.80;1.20;;;15.50;99.90;;;;;;5033896;28;20209;-85
2021/08/06 07:40:55;;;;;;;1.13;1.10;;;15.50;99.90;;;;;;5028829;28;20272;-87
2021/08/06 07:43:26;;;;;;;1.43;1.33;;;15.60;99.90;;;;;;5025754;28;20205;-85
2021/08/06 07:45:58;;;;;;;1.23;1.13;;;15.70;99.90;;;;;;5036479;28;20201;-86
2021/08/06 07:48:27;;;;;;;1.20;1.10;;;15.70;99.90;;;;;;5021033;28;20299;-84
2021/08/06 07:50:56;;;;;;;1.47;1.37;;;15.70;99.90;;;;;;5043852;28;20206;-85
2021/08/06 07:53:25;;;;;;;1.23;1.17;;;15.70;99.90;;;;;;5038640;28;20262;-83
2021/08/06 07:55:56;;;;;;;1.10;1.10;;;15.70;99.90;;;;;;5035181;28;20577;-86
2021/08/06 07:58:31;;;;;;;0.83;0.83;;;15.70;99.90;;;;;;5026968;28;20213;-84
2021/08/06 08:01:06;;;;;;;0.50;0.50;;;15.70;99.90;;;;;;5033325;28;20206;-82
2021/08/06 08:03:45;;;;;;;1.07;1.03;;;15.60;99.90;;;;;;5023065;28;20217;-86
2021/08/06 08:06:18;;;;;;;1.70;0.90;;;15.50;99.90;;;;;;5046059;28;20240;-86
2021/08/06 08:08:48;;;;;;;1.67;0.90;;;15.60;99.90;;;;;;5056899;28;20221;-87
2021/08/06 08:11:18;;;;;;;1.00;0.90;;;15.60;99.90;;;;;;5058946;28;20190;-85
2021/08/06 08:13:47;;;;;;;1.07;1.07;;;15.70;99.90;;;;;;5053797;28;20810;-83
2021/08/06 08:16:18;;;;;;;0.83;0.83;;;15.60;99.90;;;;;;5029151;28;20221;-82
2021/08/06 08:18:52;;;;;;;1.47;0.97;;;15.70;99.90;;;;;;5043710;28;20233;-86
2021/08/06 08:21:25;;;;;;;0.87;0.87;;;15.70;99.90;;;;;;5045168;28;20206;-86
2021/08/06 08:24:06;;;;;;;0.87;0.80;;;15.60;99.90;;;;;;5042022;28;20966;-86
2021/08/06 08:26:38;;;;;;;0.60;0.60;;;15.70;99.90;;;;;;5051259;28;20581;-85
2021/08/06 08:29:38;;;;;;;1.37;0.90;;;15.60;99.90;;;;;;5058884;28;20280;-87
2021/08/06 08:32:13;;;;;;;1.30;1.20;;;15.60;99.90;;;;;;5288462;22;20229;-85
2021/08/06 08:35:11;;;;;;;0.70;0.70;;;15.60;99.90;;;;;;5076899;28;20310;-85
2021/08/06 08:37:49;;;;;;;1.50;0.80;;;15.60;99.90;;;;;;5073639;28;20201;-84
2021/08/06 08:40:18;;;;;;;0.80;0.80;;;15.60;99.90;;;;;;5074512;28;20193;-82
2021/08/06 08:43:12;;;;;;;0.70;0.70;;;15.60;99.90;;;;;;5078800;28;20225;-83
2021/08/06 08:45:45;;;;;;;0.80;0.80;;;15.60;99.90;;;;;;5077327;28;20208;-83
2021/08/06 08:48:35;;;;;;;1.00;1.00;;;15.60;99.90;;;;;;5091119;22;20229;-83
2021/08/06 08:51:05;;;;;;;2.57;0.97;;;15.60;99.90;;;;;;5063891;28;20215;-84
2021/08/06 08:53:45;;;;;;;0.73;0.73;;;15.60;99.90;;;;;;5071627;28;20190;-84
2021/08/06 08:56:30;;;;;;;1.93;1.20;;;15.60;99.90;;;;;;5049878;28;20213;-83
2021/08/06 08:59:13;;;;;;;1.90;1.03;;;15.60;99.90;;;;;;5068732;28;20202;-86
2021/08/06 09:01:59;;;;;;;1.90;1.30;;;15.70;99.90;;;;;;5074799;28;20197;-84
2021/08/06 09:05:09;;;;;;;1.27;0.90;;;15.80;99.90;;;;;;5079880;28;20178;-82
2021/08/06 09:07:52;;;;;;;1.33;1.10;;;15.60;99.90;;;;;;5071158;28;20228;-86
2021/08/06 09:10:27;;;;;;;3.07;1.07;;;15.60;99.90;;;;;;5055311;28;20206;-85
2021/08/06 09:12:59;;;;;;;1.00;1.00;;;15.60;99.90;;;;;;5049620;28;21943;-83
2021/08/06 09:15:45;;;;;;;1.53;1.20;;;15.60;99.90;;;;;;5063671;28;20702;-86
2021/08/06 09:18:28;;;;;;;1.37;1.03;;;15.70;99.90;;;;;;5060625;28;20311;-83
2021/08/06 09:21:22;;;;;;;1.10;1.10;;;15.70;99.90;;;;;;5043210;28;20648;-83
2021/08/06 09:23:59;;;;;;;0.87;0.87;;;15.70;99.90;;;;;;5051100;28;20631;-83
2021/08/06 09:26:45;;;;;;;1.33;1.20;;;15.70;99.90;;;;;;5036427;28;20304;-84
2021/08/06 09:29:24;;;;;;;2.13;1.00;;;15.80;99.90;;;;;;5059955;28;20269;-83
2021/08/06 09:32:18;;;;;;;0.70;0.70;;;15.80;99.90;;;;;;5046273;28;20286;-84
2021/08/06 09:34:49;;;;;;;1.87;1.10;;;15.70;99.90;;;;;;5053314;28;20662;-84
2021/08/06 09:37:24;;;;;;;0.70;0.70;;;15.70;99.90;;;;;;5054467;28;20197;-84
2021/08/06 09:40:15;;;;;;;0.83;0.80;;;15.80;99.90;;;;;;5053887;28;20212;-84
2021/08/06 09:42:56;;;;;;;1.10;0.80;;;15.70;99.90;;;;;;5050923;28;20614;-85
2021/08/06 09:45:41;;;;;;;0.80;0.80;;;15.70;99.90;;;;;;5056098;28;20193;-86
2021/08/06 09:48:27;;;;;;;0.97;0.80;;;15.70;99.90;;;;;;5050230;28;20221;-88
2021/08/06 09:50:58;;;;;;;0.70;0.70;;;15.80;99.90;;;;;;5035877;28;20201;-86
2021/08/06 09:53:29;;;;;;;0.80;0.70;;;15.70;99.90;;;;;;5057754;28;20201;-87
2021/08/06 09:56:03;;;;;;;0.70;0.60;;;15.60;99.90;;;;;;5057662;28;20201;-86
2021/08/06 09:58:33;;;;;;;0.53;0.53;;;15.70;99.90;;;;;;5062135;28;20265;-85
2021/08/06 10:01:21;;;;;;;0.70;0.70;;;15.70;99.90;;;;;;5052983;28;20209;-88
2021/08/06 10:04:14;;;;;;;0.60;0.60;;;15.70;99.90;;;;;;5049613;28;20798;-84
2021/08/06 10:06:59;;;;;;;0.70;0.70;;;15.60;99.90;;;;;;5048773;28;21199;-85
2021/08/06 10:09:33;;;;;;;0.60;0.60;;;15.70;99.90;;;;;;5048164;28;20752;-86
2021/08/06 10:12:05;;;;;;;2.03;0.90;;;15.70;99.90;;;;;;5046930;28;21578;-85
2021/08/06 10:14:40;;;;;;;0.57;0.50;;;15.60;99.90;;;;;;5047495;28;20201;-83
2021/08/06 10:17:11;;;;;;;0.50;0.50;;;15.60;99.90;;;;;;5050204;28;20254;-85
2021/08/06 10:19:51;;;;;;;0.63;0.63;;;15.50;99.90;;;;;;5054940;28;20277;-84
2021/08/06 10:22:24;;;;;;;0.70;0.70;;;15.50;99.90;;;;;;5051655;28;20202;-87
2021/08/06 10:25:28;;;;;;;1.63;0.77;;;15.50;99.90;;;;;;5065044;28;20205;-86
2021/08/06 10:28:05;;;;;;;0.60;0.60;;;15.70;99.90;;;;;;5060628;28;20225;-83
2021/08/06 10:30:37;;;;;;;0.87;0.80;;;15.60;99.90;;;;;;5055303;28;20261;-82
2021/08/06 10:33:12;;;;;;;0.80;0.80;;;15.70;99.90;;;;;;5051825;28;20228;-84
2021/08/06 10:35:46;;;;;;;2.53;0.90;;;15.60;99.90;;;;;;5064407;28;20739;-83
2021/08/06 10:38:17;;;;;;;1.10;0.90;;;15.60;99.90;;;;;;5066342;28;20204;-86
2021/08/06 10:40:57;;;;;;;2.27;1.00;;;15.50;99.90;;;;;;5057693;28;21137;-86
2021/08/06 10:44:02;;;;;;;2.30;1.30;;;15.50;99.90;;;;;;5053593;28;20308;-83
2021/08/06 10:47:01;;;;;;;1.90;1.50;;;15.50;99.90;;;;;;5017846;28;20308;-85
2021/08/06 10:49:38;;;;;;;5.23;1.70;;;15.60;99.90;;;;;;5055203;28;20218;-82
2021/08/06 10:52:23;;;;;;;3.47;1.83;;;15.50;99.90;;;;;;5053189;28;20208;-85
2021/08/06 10:54:52;;;;;;;3.07;1.87;;;15.50;99.90;;;;;;5051214;28;20196;-85
2021/08/06 10:57:29;;;;;;;3.80;2.03;;;15.60;99.90;;;;;;5080257;28;20182;-85
2021/08/06 11:00:02;;;;;;;2.77;1.87;;;15.70;99.90;;;;;;5081952;28;20257;-85
2021/08/06 11:02:51;;;;;;;1.93;1.00;;;15.80;99.90;;;;;;5053753;28;20206;-84
2021/08/06 11:05:44;;;;;;;2.47;1.73;;;15.70;99.90;;;;;;5075466;28;20202;-83
2021/08/06 11:09:01;;;;;;;2.77;1.87;;;15.70;99.90;;;;;;5066709;28;20225;-84
2021/08/06 11:11:46;;;;;;;5.30;1.93;;;15.60;99.90;;;;;;5056732;28;20227;-85
2021/08/06 11:14:17;;;;;;;6.20;2.10;;;15.70;99.90;;;;;;5046092;28;20222;-87
2021/08/06 11:17:02;;;;;;;4.07;1.80;;;15.70;99.90;;;;;;5034695;28;20209;-83
2021/08/06 11:19:33;;;;;;;3.90;2.07;;;15.70;99.90;;;;;;5050873;28;20201;-85
2021/08/06 11:22:07;;;;;;;3.67;2.10;;;15.60;99.90;;;;;;5054475;28;20193;-82
2021/08/06 11:24:38;;;;;;;3.10;1.47;;;15.70;99.90;;;;;;5052548;28;20213;-83
2021/08/06 11:27:09;;;;;;;2.43;1.47;;;15.60;99.90;;;;;;5058616;28;20202;-83
2021/08/06 11:29:42;;;;;;;2.10;1.07;;;15.60;99.90;;;;;;5064730;28;20226;-84
2021/08/06 11:32:12;;;;;;;3.20;1.80;;;15.70;99.90;;;;;;5056691;28;20202;-86
2021/08/06 11:34:53;;;;;;;1.87;1.20;;;15.70;99.90;;;;;;5054732;28;20209;-85
2021/08/06 11:37:23;;;;;;;3.50;1.73;;;15.70;99.90;;;;;;5066641;28;20288;-84
2021/08/06 11:40:08;;;;;;;3.17;1.70;;;15.70;99.90;;;;;;5063815;28;20185;-84
2021/08/06 11:42:40;;;;;;;4.37;2.00;;;15.80;99.90;;;;;;5064210;28;20263;-83
2021/08/06 11:45:15;;;;;;;4.83;1.70;;;15.80;99.90;;;;;;5058692;28;20342;-84
2021/08/06 11:47:46;;;;;;;2.87;1.60;;;15.70;99.90;;;;;;5056936;28;20229;-83
2021/08/06 11:50:16;;;;;;;2.57;1.13;;;15.70;99.90;;;;;;5052039;28;20197;-84
2021/08/06 11:52:47;;;;;;;2.30;1.33;;;15.60;99.90;;;;;;5041878;28;20195;-83
2021/08/06 11:55:18;;;;;;;1.40;1.10;;;15.50;99.90;;;;;;5047300;28;20276;-84
2021/08/06 11:57:53;;;;;;;1.40;1.20;;;15.50;99.90;;;;;;5033247;28;20258;-82
2021/08/06 12:00:25;;;;;;;2.70;1.50;;;15.50;99.90;;;;;;5054431;28;20205;-86
2021/08/06 12:03:03;;;;;;;1.60;1.30;;;15.60;99.90;;;;;;5049699;28;20201;-86
2021/08/06 12:05:33;;;;;;;1.17;0.97;;;15.60;99.90;;;;;;5053360;28;20611;-84
2021/08/06 12:08:17;;;;;;;1.13;1.03;;;15.50;99.90;;;;;;5060313;28;20233;-83
2021/08/06 12:10:49;;;;;;;1.17;0.90;;;15.60;99.90;;;;;;5058061;28;20620;-83
2021/08/06 12:13:26;;;;;;;0.47;0.47;;;15.60;99.90;;;;;;5060634;28;20219;-84
2021/08/06 12:16:07;;;;;;;1.90;1.13;;;15.60;99.90;;;;;;5059378;28;20201;-86
2021/08/06 12:18:37;;;;;;;1.23;1.00;;;15.40;99.90;;;;;;5061803;28;20200;-84
2021/08/06 12:21:11;;;;;;;1.47;1.30;;;15.40;99.90;;;;;;5063979;28;20584;-83
2021/08/06 12:23:48;;;;;;;1.63;1.20;;;15.40;99.90;;;;;;5077180;28;20250;-83
2021/08/06 12:26:23;;;;;;;2.07;1.40;;;15.40;99.90;;;;;;5084180;28;20200;-82
2021/08/06 12:29:09;;;;;;;1.07;1.07;;;15.30;99.90;;;;;;5069223;28;20225;-87
2021/08/06 12:31:55;;;;;;;0.97;0.97;;;15.30;99.90;;;;;;5070112;28;20210;-84
2021/08/06 12:34:26;;;;;;;1.57;1.10;;;15.30;99.90;;;;;;5069796;28;20293;-84
2021/08/06 12:37:05;;;;;;;0.90;0.90;;;15.20;99.90;;;;;;5072150;28;20209;-84
2021/08/06 12:39:52;;;;;;;2.00;1.30;;;15.00;99.90;;;;;;5073362;28;20198;-86
2021/08/06 12:42:25;;;;;;;2.97;0.70;;;15.10;99.90;;;;;;5059802;28;20205;-84
2021/08/06 12:45:08;;;;;;;0.77;0.70;;;15.00;99.90;;;;;;5061407;28;20216;-84
2021/08/06 12:47:44;;;;;;;1.23;1.07;;;14.90;99.90;;;;;;5061422;28;20225;-83
2021/08/06 12:50:15;;;;;;;1.23;0.80;;;14.90;99.90;;;;;;5059932;28;20235;-85
2021/08/06 12:52:46;;;;;;;0.73;0.73;;;14.90;99.90;;;;;;5057773;28;20735;-83
2021/08/06 12:55:19;;;;;;;1.27;0.90;;;14.80;99.90;;;;;;5057960;28;20219;-84
2021/08/06 12:58:00;;;;;;;0.90;0.77;;;14.80;99.90;;;;;;5063023;28;20202;-84
2021/08/06 13:00:35;;;;;;;1.70;0.83;;;14.80;99.90;;;;;;5060220;28;20517;-87
2021/08/06 13:03:07;;;;;;;2.40;1.03;;;14.70;99.90;;;;;;5059510;28;20207;-83
2021/08/06 13:05:39;;;;;;;1.07;1.00;;;14.70;99.90;;;;;;5062602;28;20210;-83
2021/08/06 13:08:17;;;;;;;3.00;1.20;;;14.70;99.90;;;;;;5049737;28;20236;-84
2021/08/06 13:10:48;;;;;;;0.93;0.83;;;14.60;99.90;;;;;;5052613;28;20221;-84
2021/08/06 13:13:18;;;;;;;2.40;0.90;;;14.50;99.90;;;;;;5063250;28;20205;-85
2021/08/06 13:15:48;;;;;;;0.93;0.93;;;14.60;99.90;;;;;;5060909;28;20225;-84
2021/08/06 13:18:18;;;;;;;1.30;0.80;;;14.60;99.90;;;;;;5045777;28;20215;-84
2021/08/06 13:20:47;;;;;;;0.90;0.80;;;14.60;99.90;;;;;;5061766;28;20376;-85
2021/08/06 13:23:22;;;;;;;0.70;0.70;;;14.50;99.90;;;;;;5058284;28;20249;-87
2021/08/06 13:25:52;;;;;;;0.93;0.60;;;14.50;99.90;;;;;;5067095;28;20220;-85
2021/08/06 13:28:21;;;;;;;1.00;0.90;;;14.40;99.90;;;;;;5064724;28;20219;-85
2021/08/06 13:30:51;;;;;;;0.60;0.60;;;14.40;99.90;;;;;;5080572;28;20225;-84
2021/08/06 13:33:24;;;;;;;1.13;1.00;;;14.30;99.90;;;;;;5080304;28;20232;-86
2021/08/06 13:35:53;;;;;;;1.10;1.00;;;14.30;99.90;;;;;;5075493;28;20209;-85
2021/08/06 13:38:28;;;;;;;0.77;0.70;;;14.30;99.90;;;;;;5070958;28;20201;-84
2021/08/06 13:40:59;;;;;;;1.40;0.87;;;14.30;99.90;;;;;;5069911;28;20284;-86
2021/08/06 13:43:28;;;;;;;0.70;0.70;;;14.40;99.90;;;;;;5081575;28;20209;-85